createdAt,value
2023-02-26T00:01:31.859Z,8.54
2023-02-26T00:04:03.392Z,8.44
2023-02-26T00:06:34.811Z,8.41
2023-02-26T00:09:03.696Z,8.34
2023-02-26T00:11:31.601Z,8.33
2023-02-26T00:13:59.431Z,8.26
2023-02-26T00:16:33.615Z,8.36
2023-02-26T00:19:03.432Z,8.30
2023-02-26T00:21:32.055Z,8.33
2023-02-26T00:24:00.530Z,8.22
2023-02-26T00:26:28.859Z,8.24
2023-02-26T00:28:56.566Z,8.16
2023-02-26T00:31:24.928Z,8.24
2023-02-26T00:33:56.968Z,8.29
2023-02-26T00:36:25.930Z,8.12
2023-02-26T00:39:09.302Z,8.17
2023-02-26T00:41:37.025Z,8.15
2023-02-26T00:44:04.532Z,8.16
2023-02-26T00:46:53.321Z,8.27
2023-02-26T00:49:44.583Z,8.16
2023-02-26T00:52:22.959Z,8.02
2023-02-26T00:54:50.332Z,7.82
2023-02-26T00:57:17.647Z,7.89
2023-02-26T00:59:44.999Z,7.88
2023-02-26T01:02:12.281Z,7.84
2023-02-26T01:04:40.608Z,7.89
2023-02-26T01:07:09.753Z,7.95
2023-02-26T01:09:38.381Z,7.92
2023-02-26T01:12:12.883Z,7.99
2023-02-26T01:14:41.403Z,7.89
2023-02-26T01:17:25.605Z,7.74
2023-02-26T01:19:54.409Z,7.79
2023-02-26T01:22:49.119Z,7.96
2023-02-26T01:25:41.530Z,7.91
2023-02-26T01:28:09.472Z,7.81
2023-02-26T01:30:37.304Z,7.73
2023-02-26T01:33:26.377Z,7.78
2023-02-26T01:36:08.496Z,7.69
2023-02-26T01:39:03.466Z,7.78
2023-02-26T01:41:40.375Z,7.73
2023-02-26T01:44:35.858Z,7.62
2023-02-26T01:47:15.043Z,7.42
2023-02-26T01:49:43.029Z,7.65
2023-02-26T01:52:32.209Z,7.78
2023-02-26T01:55:01.498Z,7.39
2023-02-26T01:57:28.854Z,7.45
2023-02-26T01:59:56.191Z,7.43
2023-02-26T02:02:25.560Z,7.70
2023-02-26T02:04:53.683Z,7.67
2023-02-26T02:07:21.036Z,7.59
2023-02-26T02:09:48.437Z,7.53
2023-02-26T02:12:34.772Z,7.65
2023-02-26T02:15:08.340Z,7.74
2023-02-26T02:18:03.028Z,7.73
2023-02-26T02:20:58.428Z,7.58
2023-02-26T02:23:50.310Z,7.70
2023-02-26T02:26:45.772Z,7.49
2023-02-26T02:29:53.786Z,7.61
2023-02-26T02:32:39.176Z,7.46
2023-02-26T02:35:26.635Z,7.45
2023-02-26T02:38:04.659Z,7.48
2023-02-26T02:40:36.439Z,7.42
2023-02-26T02:43:14.650Z,7.44
2023-02-26T02:45:50.175Z,7.43
2023-02-26T02:48:25.335Z,7.28
2023-02-26T02:50:58.079Z,7.35
2023-02-26T02:53:38.047Z,7.44
2023-02-26T02:56:13.233Z,7.46
2023-02-26T02:58:43.708Z,7.42
2023-02-26T03:01:15.894Z,7.03
2023-02-26T03:04:13.598Z,7.44
2023-02-26T03:06:41.101Z,7.20
2023-02-26T03:09:09.681Z,7.20
2023-02-26T03:11:41.357Z,7.16
2023-02-26T03:14:10.238Z,6.99
2023-02-26T03:16:43.803Z,7.42
2023-02-26T03:19:41.829Z,7.48
2023-02-26T03:22:22.822Z,7.27
2023-02-26T03:25:45.897Z,7.46
2023-02-26T03:28:36.288Z,7.29
2023-02-26T03:31:24.089Z,7.14
2023-02-26T03:34:05.967Z,7.14
2023-02-26T03:36:39.506Z,7.01
2023-02-26T03:39:27.921Z,7.07
2023-02-26T03:42:00.523Z,7.24
2023-02-26T03:44:38.410Z,7.25
2023-02-26T03:47:08.688Z,6.92
2023-02-26T03:49:59.209Z,7.08
2023-02-26T03:52:30.122Z,7.00
2023-02-26T03:55:26.482Z,6.93
2023-02-26T03:57:59.951Z,6.71
2023-02-26T04:00:31.893Z,6.85
2023-02-26T04:03:20.214Z,7.02
2023-02-26T04:05:50.814Z,6.93
2023-02-26T04:08:20.453Z,6.79
2023-02-26T04:11:00.895Z,6.82
2023-02-26T04:13:28.592Z,6.65
2023-02-26T04:15:56.720Z,6.68
2023-02-26T04:18:24.151Z,6.66
2023-02-26T04:20:51.535Z,6.67
2023-02-26T04:23:19.418Z,6.69
2023-02-26T04:25:47.534Z,6.69
2023-02-26T04:28:16.957Z,6.66
2023-02-26T04:30:44.429Z,6.59
2023-02-26T04:33:14.069Z,6.62
2023-02-26T04:35:41.736Z,6.58
2023-02-26T04:38:09.879Z,6.57
2023-02-26T04:40:37.289Z,6.61
2023-02-26T04:43:04.787Z,6.57
2023-02-26T04:45:36.987Z,6.53
2023-02-26T04:48:04.487Z,6.47
2023-02-26T04:50:31.903Z,6.53
2023-02-26T04:52:59.206Z,6.53
2023-02-26T04:55:26.935Z,6.47
2023-02-26T04:57:54.222Z,6.43
2023-02-26T05:00:25.738Z,6.44
2023-02-26T05:02:53.085Z,6.32
2023-02-26T05:05:20.394Z,6.40
2023-02-26T05:07:47.743Z,6.43
2023-02-26T05:10:15.996Z,6.40
2023-02-26T05:12:43.273Z,6.66
2023-02-26T05:15:10.960Z,6.44
2023-02-26T05:17:38.295Z,6.39
2023-02-26T05:20:10.047Z,6.47
2023-02-26T05:22:38.653Z,6.47
2023-02-26T05:25:06.570Z,6.35
2023-02-26T05:27:34.269Z,6.62
2023-02-26T05:30:01.629Z,6.60
2023-02-26T05:32:29.048Z,6.57
2023-02-26T05:34:57.244Z,6.59
2023-02-26T05:37:24.642Z,6.63
2023-02-26T05:39:51.979Z,6.43
2023-02-26T05:42:19.236Z,6.54
2023-02-26T05:44:46.488Z,6.47
2023-02-26T05:47:13.787Z,6.50
2023-02-26T05:49:41.041Z,6.41
2023-02-26T05:52:08.495Z,6.42
2023-02-26T05:54:35.756Z,6.44
2023-02-26T05:57:03.122Z,6.41
2023-02-26T05:59:30.376Z,6.38
2023-02-26T06:01:58.432Z,6.40
2023-02-26T06:04:25.968Z,6.33
2023-02-26T06:06:53.251Z,6.41
2023-02-26T06:09:20.541Z,6.39
2023-02-26T06:11:47.803Z,6.51
2023-02-26T06:14:15.043Z,6.47
2023-02-26T06:16:42.396Z,6.40
2023-02-26T06:19:09.760Z,6.38
2023-02-26T06:21:37.083Z,6.49
2023-02-26T06:24:04.523Z,6.42
2023-02-26T06:26:31.786Z,6.44
2023-02-26T06:28:59.144Z,6.44
2023-02-26T06:31:26.499Z,6.49
2023-02-26T06:33:53.835Z,6.35
2023-02-26T06:36:21.138Z,6.16
2023-02-26T06:38:48.703Z,6.19
2023-02-26T06:41:15.781Z,6.46
2023-02-26T06:43:43.137Z,6.48
2023-02-26T06:46:10.492Z,6.43
2023-02-26T06:48:37.897Z,6.44
2023-02-26T06:51:07.409Z,6.41
2023-02-26T06:53:34.865Z,6.53
2023-02-26T06:56:03.246Z,6.53
2023-02-26T06:58:30.695Z,6.58
2023-02-26T07:00:58.089Z,6.60
2023-02-26T07:03:25.484Z,6.61
2023-02-26T07:05:52.891Z,6.61
2023-02-26T07:08:20.322Z,6.58
2023-02-26T07:10:49.405Z,6.57
2023-02-26T07:13:20.063Z,6.48
2023-02-26T07:15:47.414Z,6.43
2023-02-26T07:18:15.050Z,6.22
2023-02-26T07:20:43.165Z,6.29
2023-02-26T07:23:10.827Z,6.43
2023-02-26T07:25:38.494Z,6.57
2023-02-26T07:28:06.145Z,6.38
2023-02-26T07:30:34.021Z,6.56
2023-02-26T07:33:01.554Z,6.63
2023-02-26T07:35:28.911Z,6.64
2023-02-26T07:37:56.251Z,6.66
2023-02-26T07:40:23.605Z,6.66
2023-02-26T07:42:51.203Z,6.70
2023-02-26T07:45:22.563Z,6.49
2023-02-26T07:47:51.726Z,6.55
2023-02-26T07:50:19.960Z,6.51
2023-02-26T07:52:47.611Z,6.67
2023-02-26T07:55:15.187Z,6.87
2023-02-26T07:57:42.552Z,6.95
2023-02-26T08:00:10.536Z,6.80
2023-02-26T08:02:43.439Z,6.84
2023-02-26T08:05:10.864Z,6.67
2023-02-26T08:07:38.193Z,6.86
2023-02-26T08:10:06.199Z,6.83
2023-02-26T08:12:33.511Z,6.92
2023-02-26T08:15:00.797Z,6.80
2023-02-26T08:17:28.187Z,6.85
2023-02-26T08:19:55.485Z,6.89
2023-02-26T08:22:23.734Z,6.87
2023-02-26T08:24:51.173Z,6.61
2023-02-26T08:27:18.448Z,6.84
2023-02-26T08:29:46.326Z,6.62
2023-02-26T08:32:15.885Z,6.82
2023-02-26T08:34:43.351Z,6.99
2023-02-26T08:37:11.687Z,7.02
2023-02-26T08:39:39.558Z,6.90
2023-02-26T08:42:08.043Z,6.91
2023-02-26T08:44:35.342Z,6.76
2023-02-26T08:47:03.677Z,6.63
2023-02-26T08:49:31.193Z,6.87
2023-02-26T08:51:58.846Z,6.65
2023-02-26T08:54:26.651Z,6.82
2023-02-26T08:56:56.011Z,6.38
2023-02-26T08:59:26.061Z,6.43
2023-02-26T09:01:53.490Z,6.10
2023-02-26T09:04:21.001Z,6.43
2023-02-26T09:06:49.155Z,6.24
2023-02-26T09:09:16.458Z,6.22
2023-02-26T09:11:44.010Z,6.52
2023-02-26T09:14:11.670Z,6.50
2023-02-26T09:16:39.017Z,6.33
2023-02-26T09:19:07.287Z,6.10
2023-02-26T09:21:35.760Z,6.34
2023-02-26T09:24:03.290Z,6.43
2023-02-26T09:26:30.800Z,6.36
2023-02-26T09:28:58.137Z,6.41
2023-02-26T09:31:25.593Z,6.51
2023-02-26T09:33:52.913Z,6.61
2023-02-26T09:36:20.249Z,6.23
2023-02-26T09:38:47.840Z,6.11
2023-02-26T09:41:34.309Z,6.23
2023-02-26T09:44:17.912Z,6.40
2023-02-26T09:46:58.537Z,6.09
2023-02-26T09:49:58.013Z,6.78
2023-02-26T09:52:52.414Z,6.74
2023-02-26T09:55:39.885Z,6.99
2023-02-26T09:58:22.860Z,7.21
2023-02-26T10:01:16.414Z,7.35
2023-02-26T10:04:12.719Z,6.99
2023-02-26T10:07:11.412Z,6.61
2023-02-26T10:09:41.582Z,6.66
2023-02-26T10:12:16.281Z,6.70
2023-02-26T10:15:03.656Z,7.13
2023-02-26T10:17:59.001Z,7.17
2023-02-26T10:20:44.932Z,7.06
2023-02-26T10:23:35.265Z,7.20
2023-02-26T10:26:19.459Z,6.80
2023-02-26T10:29:22.687Z,7.35
2023-02-26T10:32:07.425Z,6.94
2023-02-26T10:34:45.301Z,7.02
2023-02-26T10:37:52.449Z,7.16
2023-02-26T10:41:11.974Z,7.46
2023-02-26T10:43:42.501Z,6.46
2023-02-26T10:46:30.179Z,6.90
2023-02-26T10:49:38.023Z,7.05
2023-02-26T10:52:18.783Z,7.09
2023-02-26T10:55:15.635Z,6.90
2023-02-26T10:58:12.007Z,6.88
2023-02-26T11:00:42.660Z,6.32
2023-02-26T11:03:36.214Z,6.63
2023-02-26T11:06:04.277Z,7.19
2023-02-26T11:08:37.185Z,7.28
2023-02-26T11:11:05.570Z,7.34
2023-02-26T11:13:35.588Z,7.45
2023-02-26T11:16:30.898Z,7.36
2023-02-26T11:19:00.710Z,7.01
2023-02-26T11:21:39.296Z,7.14
2023-02-26T11:24:13.196Z,6.79
2023-02-26T11:26:47.564Z,6.99
2023-02-26T11:29:20.264Z,6.68
2023-02-26T11:31:55.806Z,7.04
2023-02-26T11:34:25.720Z,6.75
2023-02-26T11:36:57.329Z,6.57
2023-02-26T11:39:33.518Z,6.87
2023-02-26T11:42:02.704Z,7.14
2023-02-26T11:44:39.772Z,7.55
2023-02-26T11:47:14.060Z,7.68
2023-02-26T11:49:45.832Z,7.03
2023-02-26T11:52:44.761Z,7.09
2023-02-26T11:55:23.047Z,7.03
2023-02-26T11:57:54.929Z,6.74
2023-02-26T12:00:31.271Z,7.25
2023-02-26T12:03:08.344Z,7.12
2023-02-26T12:05:37.035Z,6.70
2023-02-26T12:08:18.545Z,6.60
2023-02-26T12:11:15.485Z,7.13
2023-02-26T12:14:00.870Z,6.41
2023-02-26T12:16:53.911Z,6.92
2023-02-26T12:19:24.113Z,7.05
2023-02-26T12:22:18.758Z,6.93
2023-02-26T12:25:21.725Z,7.00
2023-02-26T12:28:10.012Z,7.29
2023-02-26T12:31:02.887Z,11.13
2023-02-26T12:33:57.386Z,12.56
2023-02-26T12:36:52.989Z,10.90
2023-02-26T12:39:45.351Z,12.85
2023-02-26T12:42:27.120Z,11.94
2023-02-26T12:45:31.777Z,10.68
2023-02-26T12:48:03.860Z,8.98
2023-02-26T12:50:37.363Z,9.52
2023-02-26T12:53:43.101Z,8.93
2023-02-26T12:56:34.802Z,10.89
2023-02-26T12:59:29.468Z,8.89
2023-02-26T13:02:34.462Z,10.94
2023-02-26T13:05:20.499Z,10.82
2023-02-26T13:08:23.887Z,10.45
2023-02-26T13:11:16.274Z,10.72
2023-02-26T13:13:56.203Z,9.36
2023-02-26T13:16:52.594Z,8.79
2023-02-26T13:19:30.903Z,12.22
2023-02-26T13:22:05.567Z,13.48
2023-02-26T13:24:50.729Z,12.73
2023-02-26T13:27:18.539Z,11.20
2023-02-26T13:29:59.637Z,12.46
2023-02-26T13:32:28.692Z,15.14
2023-02-26T13:35:01.249Z,12.61
2023-02-26T13:37:39.106Z,13.99
2023-02-26T13:40:38.745Z,18.25
2023-02-26T13:43:25.466Z,12.20
2023-02-26T13:46:27.681Z,12.73
2023-02-26T13:49:04.708Z,13.34
2023-02-26T13:51:31.956Z,9.93
2023-02-26T13:54:02.285Z,8.74
2023-02-26T13:56:32.296Z,9.18
2023-02-26T13:59:17.246Z,8.42
2023-02-26T14:01:57.406Z,8.73
2023-02-26T14:04:29.989Z,7.29
2023-02-26T14:07:15.632Z,7.14
2023-02-26T14:10:02.306Z,8.10
2023-02-26T14:12:29.568Z,7.62
2023-02-26T14:15:10.710Z,8.06
2023-02-26T14:17:50.264Z,8.47
2023-02-26T14:20:26.853Z,9.11
2023-02-26T14:23:18.917Z,8.62
2023-02-26T14:25:55.008Z,8.94
2023-02-26T14:28:25.144Z,8.55
2023-02-26T14:31:11.603Z,8.35
2023-02-26T14:34:04.494Z,8.25
2023-02-26T14:36:46.090Z,9.07
2023-02-26T14:39:38.074Z,8.34
2023-02-26T14:42:53.498Z,8.36
2023-02-26T14:45:40.627Z,8.48
2023-02-26T14:48:18.628Z,8.55
2023-02-26T14:51:26.288Z,7.94
2023-02-26T14:54:21.052Z,8.14
2023-02-26T14:57:21.506Z,8.37
2023-02-26T14:59:51.952Z,8.04
2023-02-26T15:02:28.615Z,7.79
2023-02-26T15:05:04.711Z,7.43
2023-02-26T15:07:49.559Z,7.81
2023-02-26T15:10:41.405Z,7.89
2023-02-26T15:13:26.635Z,8.17
2023-02-26T15:16:14.774Z,7.71
2023-02-26T15:19:37.130Z,8.55
2023-02-26T15:22:44.167Z,8.51
2023-02-26T15:25:36.658Z,7.84
2023-02-26T15:28:06.023Z,8.30
2023-02-26T15:30:34.754Z,8.94
2023-02-26T15:33:07.803Z,8.23
2023-02-26T15:35:35.113Z,7.28
2023-02-26T15:38:04.159Z,7.30
2023-02-26T15:40:35.585Z,7.23
2023-02-26T15:43:03.417Z,7.32
2023-02-26T15:45:36.007Z,7.56
2023-02-26T15:48:06.135Z,7.60
2023-02-26T15:50:36.876Z,7.52
2023-02-26T15:53:05.476Z,7.59
2023-02-26T15:55:36.690Z,7.77
2023-02-26T15:58:05.782Z,7.22
2023-02-26T16:00:36.923Z,7.26
2023-02-26T16:03:04.561Z,7.60
2023-02-26T16:05:32.193Z,7.00
2023-02-26T16:07:59.569Z,6.78
2023-02-26T16:10:39.298Z,6.34
2023-02-26T16:13:16.217Z,6.97
2023-02-26T16:15:43.833Z,6.32
2023-02-26T16:18:18.844Z,6.91
2023-02-26T16:20:49.386Z,7.56
2023-02-26T16:23:22.822Z,7.19
2023-02-26T16:26:00.093Z,6.89
2023-02-26T16:28:49.660Z,6.63
2023-02-26T16:31:20.341Z,7.40
2023-02-26T16:34:22.835Z,7.11
2023-02-26T16:36:51.782Z,7.35
2023-02-26T16:39:27.676Z,7.36
2023-02-26T16:42:15.208Z,6.89
2023-02-26T16:44:54.518Z,6.97
2023-02-26T16:47:22.138Z,7.23
2023-02-26T16:49:50.169Z,7.52
2023-02-26T16:52:22.443Z,7.27
2023-02-26T16:55:03.018Z,7.53
2023-02-26T16:57:43.152Z,6.70
2023-02-26T17:00:27.609Z,6.89
2023-02-26T17:02:55.845Z,7.20
2023-02-26T17:05:31.082Z,7.39
2023-02-26T17:08:09.880Z,7.62
2023-02-26T17:10:54.380Z,6.59
2023-02-26T17:13:28.919Z,6.75
2023-02-26T17:16:02.424Z,7.15
2023-02-26T17:18:30.883Z,7.17
2023-02-26T17:20:58.930Z,6.76
2023-02-26T17:23:32.736Z,6.44
2023-02-26T17:26:02.321Z,6.38
2023-02-26T17:28:36.606Z,6.41
2023-02-26T17:31:04.590Z,6.82
2023-02-26T17:33:31.989Z,6.89
2023-02-26T17:36:01.833Z,6.44
2023-02-26T17:38:29.614Z,6.31
2023-02-26T17:40:58.218Z,6.30
2023-02-26T17:43:25.655Z,5.99
2023-02-26T17:45:53.532Z,6.70
2023-02-26T17:48:24.583Z,6.38
2023-02-26T17:50:54.790Z,6.59
2023-02-26T17:53:27.541Z,6.50
2023-02-26T17:55:56.414Z,6.49
2023-02-26T17:58:31.889Z,6.82
2023-02-26T18:00:59.694Z,6.78
2023-02-26T18:03:27.335Z,6.46
2023-02-26T18:05:56.355Z,6.64
2023-02-26T18:08:31.981Z,6.82
2023-02-26T18:11:01.154Z,6.62
2023-02-26T18:13:29.744Z,6.49
2023-02-26T18:15:58.147Z,6.64
2023-02-26T18:18:26.666Z,6.57
2023-02-26T18:20:54.454Z,6.47
2023-02-26T18:23:22.131Z,6.20
2023-02-26T18:25:51.966Z,6.65
2023-02-26T18:28:25.614Z,6.39
2023-02-26T18:30:53.544Z,6.35
2023-02-26T18:33:21.419Z,6.12
2023-02-26T18:35:53.315Z,6.64
2023-02-26T18:38:23.877Z,5.70
2023-02-26T18:40:52.197Z,6.39
2023-02-26T18:43:19.757Z,5.90
2023-02-26T18:45:49.153Z,6.21
2023-02-26T18:48:19.497Z,6.44
2023-02-26T18:50:47.367Z,6.05
2023-02-26T18:53:17.130Z,5.85
2023-02-26T18:55:44.956Z,5.95
2023-02-26T18:58:13.274Z,6.56
2023-02-26T19:00:41.929Z,6.70
2023-02-26T19:03:09.461Z,6.35
2023-02-26T19:05:37.316Z,6.47
2023-02-26T19:08:05.754Z,6.49
2023-02-26T19:10:34.390Z,6.15
2023-02-26T19:13:02.043Z,6.31
2023-02-26T19:15:29.602Z,5.86
2023-02-26T19:17:56.953Z,5.98
2023-02-26T19:20:24.291Z,5.29
2023-02-26T19:22:51.718Z,6.12
2023-02-26T19:25:23.940Z,5.65
2023-02-26T19:27:54.168Z,6.24
2023-02-26T19:30:23.284Z,5.90
2023-02-26T19:32:51.400Z,5.82
2023-02-26T19:35:19.562Z,5.97
2023-02-26T19:37:47.256Z,5.11
2023-02-26T19:40:19.529Z,5.48
2023-02-26T19:42:47.275Z,6.02
2023-02-26T19:45:15.653Z,5.92
2023-02-26T19:47:43.012Z,5.96
2023-02-26T19:50:11.465Z,5.41
2023-02-26T19:52:38.960Z,6.03
2023-02-26T19:55:08.058Z,5.09
2023-02-26T19:57:35.487Z,5.46
2023-02-26T20:00:03.685Z,6.10
2023-02-26T20:02:39.395Z,5.61
2023-02-26T20:05:07.631Z,5.98
2023-02-26T20:07:35.626Z,6.38
2023-02-26T20:10:03.116Z,6.34
2023-02-26T20:12:30.486Z,5.99
2023-02-26T20:14:57.995Z,6.43
2023-02-26T20:17:25.563Z,6.12
2023-02-26T20:19:55.031Z,6.05
2023-02-26T20:22:24.442Z,6.05
2023-02-26T20:24:54.452Z,5.33
2023-02-26T20:27:21.957Z,5.76
2023-02-26T20:29:50.920Z,6.20
2023-02-26T20:32:18.428Z,6.18
2023-02-26T20:34:45.875Z,5.95
2023-02-26T20:37:13.196Z,5.35
2023-02-26T20:39:40.666Z,5.94
2023-02-26T20:42:07.943Z,6.00
2023-02-26T20:44:35.260Z,5.64
2023-02-26T20:47:02.610Z,6.14
2023-02-26T20:49:30.496Z,5.73
2023-02-26T20:51:58.158Z,5.90
2023-02-26T20:54:25.735Z,5.80
2023-02-26T20:56:53.013Z,5.43
2023-02-26T20:59:20.437Z,5.22
2023-02-26T21:01:48.483Z,5.72
2023-02-26T21:04:15.838Z,5.52
2023-02-26T21:06:43.268Z,5.66
2023-02-26T21:09:11.176Z,5.83
2023-02-26T21:11:39.474Z,5.81
2023-02-26T21:14:08.254Z,5.69
2023-02-26T21:16:36.349Z,5.93
2023-02-26T21:19:04.422Z,5.60
2023-02-26T21:21:32.095Z,5.63
2023-02-26T21:23:59.576Z,5.65
2023-02-26T21:26:27.649Z,5.69
2023-02-26T21:28:55.091Z,5.74
2023-02-26T21:31:22.418Z,5.51
2023-02-26T21:33:49.781Z,5.63
2023-02-26T21:36:17.221Z,5.75
2023-02-26T21:38:44.570Z,5.79
2023-02-26T21:41:12.410Z,5.57
2023-02-26T21:43:39.700Z,5.71
2023-02-26T21:46:07.125Z,5.79
2023-02-26T21:48:34.742Z,6.03
2023-02-26T21:51:02.300Z,5.74
2023-02-26T21:53:29.773Z,5.74
2023-02-26T21:55:57.722Z,5.45
2023-02-26T21:58:25.530Z,5.43
2023-02-26T22:00:52.918Z,6.03
2023-02-26T22:03:20.338Z,5.54
2023-02-26T22:05:53.326Z,5.71
2023-02-26T22:08:20.671Z,5.57
2023-02-26T22:10:48.026Z,5.66
2023-02-26T22:13:15.648Z,5.84
2023-02-26T22:15:43.254Z,6.06
2023-02-26T22:18:10.558Z,5.82
2023-02-26T22:20:38.112Z,5.32
2023-02-26T22:23:05.380Z,5.81
2023-02-26T22:25:32.964Z,5.91
2023-02-26T22:28:00.492Z,5.59
2023-02-26T22:30:27.943Z,5.92
2023-02-26T22:32:55.298Z,6.01
2023-02-26T22:35:22.718Z,5.58
2023-02-26T22:37:50.359Z,5.67
2023-02-26T22:40:18.091Z,5.78
2023-02-26T22:42:46.061Z,5.19
2023-02-26T22:45:16.946Z,5.39
2023-02-26T22:47:45.691Z,5.97
2023-02-26T22:50:17.533Z,6.32
2023-02-26T22:52:44.854Z,5.58
2023-02-26T22:55:12.326Z,4.68
2023-02-26T22:57:39.814Z,4.97
2023-02-26T23:00:14.583Z,6.13
2023-02-26T23:02:42.440Z,5.97
2023-02-26T23:05:10.104Z,6.02
2023-02-26T23:07:39.130Z,5.20
2023-02-26T23:10:09.607Z,5.78
2023-02-26T23:12:37.400Z,5.85
2023-02-26T23:15:07.120Z,5.43
2023-02-26T23:17:34.568Z,5.69
2023-02-26T23:20:01.937Z,5.88
2023-02-26T23:22:29.382Z,5.49
2023-02-26T23:24:56.696Z,5.85
2023-02-26T23:27:23.979Z,5.58
2023-02-26T23:29:51.497Z,5.72
2023-02-26T23:32:18.861Z,5.80
2023-02-26T23:34:48.380Z,5.94
2023-02-26T23:37:15.624Z,5.35
2023-02-26T23:39:42.899Z,5.38
2023-02-26T23:42:10.226Z,5.24
2023-02-26T23:44:37.474Z,5.46
2023-02-26T23:47:04.751Z,5.63
2023-02-26T23:49:31.995Z,4.71
2023-02-26T23:51:59.337Z,5.53
2023-02-26T23:54:26.570Z,4.74
2023-02-26T23:56:53.870Z,4.98
2023-02-26T23:59:21.112Z,5.05
